Time;durP1;ratioP1;P1;durP2;ratioP2;P2;SDS_P1;SDS_P2;PMS_P1;PMS_P2;Temp;Humidity;BMP_temperature;BMP_pressure;BME280_temperature;BME280_humidity;BME280_pressure;Samples;Min_cycle;Max_cycle;Signal;HPM_P1;HPM_P2
2022/03/13 00:01:24;;;;;;;19.15;14.13;;;5.00;55.40;;;;;;4994747;28;20069;-60
2022/03/13 00:04:09;;;;;;;19.67;13.02;;;5.10;55.40;;;;;;4977138;28;20077;-57
2022/03/13 00:06:55;;;;;;;22.20;14.57;;;5.10;55.60;;;;;;4994556;28;20041;-56
2022/03/13 00:09:39;;;;;;;22.30;13.63;;;5.00;56.50;;;;;;4994627;28;20041;-54
2022/03/13 00:12:28;;;;;;;17.63;13.27;;;4.90;57.30;;;;;;4992926;28;20041;-57
2022/03/13 00:15:15;;;;;;;21.08;14.60;;;4.90;58.00;;;;;;4987028;28;20068;-56
2022/03/13 00:17:59;;;;;;;20.38;14.75;;;4.90;58.90;;;;;;4999370;28;20041;-61
2022/03/13 00:20:44;;;;;;;23.08;14.68;;;4.80;59.00;;;;;;5011626;28;20053;-57
2022/03/13 00:23:28;;;;;;;19.27;14.02;;;4.80;58.70;;;;;;4993261;28;20516;-56
2022/03/13 00:26:15;;;;;;;21.42;14.55;;;4.70;58.70;;;;;;4975265;28;20090;-62
2022/03/13 00:28:59;;;;;;;19.80;14.30;;;4.70;59.90;;;;;;4989421;28;20490;-61
2022/03/13 00:31:43;;;;;;;22.17;13.65;;;4.60;60.60;;;;;;4992805;28;20033;-60
2022/03/13 00:34:27;;;;;;;22.25;14.43;;;4.60;61.10;;;;;;4993594;28;20033;-58
2022/03/13 00:37:11;;;;;;;19.95;14.05;;;4.50;61.10;;;;;;4994125;28;20038;-59
2022/03/13 00:39:56;;;;;;;19.58;14.27;;;4.50;61.60;;;;;;5007438;28;20048;-62
2022/03/13 00:42:40;;;;;;;52.30;30.25;;;4.40;62.40;;;;;;4992888;28;20094;-61
2022/03/13 00:45:24;;;;;;;69.57;34.20;;;4.30;61.80;;;;;;4974724;28;20046;-60
2022/03/13 00:48:08;;;;;;;30.90;18.20;;;4.30;61.60;;;;;;4990110;28;20417;-58
2022/03/13 00:50:55;;;;;;;23.35;14.15;;;4.30;60.80;;;;;;4998771;28;20545;-53
2022/03/13 00:53:41;;;;;;;17.30;12.40;;;4.20;60.00;;;;;;4997862;28;20062;-58
2022/03/13 00:56:25;;;;;;;24.48;13.43;;;4.20;59.30;;;;;;4997096;28;20463;-59
2022/03/13 00:59:09;;;;;;;20.85;13.65;;;4.20;58.40;;;;;;4989166;28;20042;-56
2022/03/13 01:01:53;;;;;;;18.77;13.27;;;4.30;58.00;;;;;;4994080;28;20149;-57
2022/03/13 01:04:37;;;;;;;20.67;13.98;;;4.30;58.30;;;;;;4978282;28;20126;-57
2022/03/13 01:07:21;;;;;;;18.60;13.20;;;4.30;59.70;;;;;;4984994;28;20073;-54
2022/03/13 01:10:08;;;;;;;20.20;13.75;;;4.30;60.70;;;;;;4988488;28;20045;-55
2022/03/13 01:12:53;;;;;;;21.75;14.05;;;4.30;60.70;;;;;;4999629;28;20066;-54
2022/03/13 01:15:38;;;;;;;19.67;13.48;;;4.20;60.60;;;;;;4995393;28;20093;-53
2022/03/13 01:18:25;;;;;;;19.63;13.23;;;4.10;60.90;;;;;;4986984;28;20397;-51
2022/03/13 01:21:10;;;;;;;19.15;13.43;;;4.10;61.00;;;;;;5001545;28;20034;-56
2022/03/13 01:24:01;;;;;;;19.17;13.02;;;4.00;61.20;;;;;;4992176;28;20048;-60
2022/03/13 01:26:52;;;;;;;18.55;12.63;;;4.00;61.70;;;;;;4993217;28;20084;-60
2022/03/13 01:29:36;;;;;;;17.60;12.35;;;4.00;61.50;;;;;;4992874;28;20029;-59
2022/03/13 01:32:20;;;;;;;20.85;13.00;;;3.90;60.90;;;;;;4992172;28;20053;-58
2022/03/13 01:35:04;;;;;;;19.17;12.50;;;3.90;60.20;;;;;;4993281;28;20038;-56
2022/03/13 01:37:49;;;;;;;20.70;12.50;;;3.90;59.90;;;;;;4992424;28;20113;-57
2022/03/13 01:40:33;;;;;;;16.23;12.30;;;3.90;59.50;;;;;;4992724;28;20042;-55
2022/03/13 01:43:18;;;;;;;17.05;12.27;;;3.90;59.20;;;;;;4984583;28;20646;-57
2022/03/13 01:46:04;;;;;;;20.95;12.23;;;3.80;58.70;;;;;;4984599;28;20038;-57
2022/03/13 01:48:57;;;;;;;22.15;13.43;;;3.80;59.00;;;;;;4992283;28;20041;-53
2022/03/13 01:51:42;;;;;;;19.42;13.07;;;3.70;59.00;;;;;;4992155;28;20037;-55
2022/03/13 01:54:26;;;;;;;22.83;14.35;;;3.60;59.70;;;;;;4992506;28;20064;-59
2022/03/13 01:57:14;;;;;;;69.93;37.42;;;3.60;60.20;;;;;;4992295;28;20421;-57
2022/03/13 02:00:00;;;;;;;84.80;43.55;;;3.60;60.30;;;;;;4992276;28;20063;-58
2022/03/13 02:02:46;;;;;;;37.22;22.40;;;3.70;61.10;;;;;;4992497;28;20041;-58
2022/03/13 02:05:33;;;;;;;26.15;14.98;;;3.70;61.80;;;;;;4992907;28;20034;-57
2022/03/13 02:08:21;;;;;;;23.88;14.57;;;3.70;62.20;;;;;;4972913;28;20053;-55
2022/03/13 02:11:05;;;;;;;19.10;13.15;;;3.70;62.60;;;;;;4986479;28;20041;-58
2022/03/13 02:13:51;;;;;;;17.27;12.63;;;3.60;63.50;;;;;;4991854;28;20048;-59
2022/03/13 02:16:35;;;;;;;17.95;12.23;;;3.60;63.50;;;;;;4991979;28;20041;-58
2022/03/13 02:19:20;;;;;;;18.58;12.43;;;3.50;62.70;;;;;;4975995;28;20041;-60
2022/03/13 02:22:05;;;;;;;18.48;11.85;;;3.50;62.10;;;;;;4985469;28;20037;-55
2022/03/13 02:24:51;;;;;;;17.60;11.80;;;3.50;61.60;;;;;;4992293;28;20100;-55
2022/03/13 02:27:35;;;;;;;16.98;12.45;;;3.40;60.70;;;;;;4992282;28;20041;-58
2022/03/13 02:30:24;;;;;;;19.00;12.73;;;3.30;60.40;;;;;;4992298;28;20045;-58
2022/03/13 02:33:08;;;;;;;17.38;12.18;;;3.30;60.60;;;;;;4975670;28;20073;-57
2022/03/13 02:35:56;;;;;;;19.25;12.35;;;3.40;61.20;;;;;;5004744;28;20084;-55
2022/03/13 02:38:40;;;;;;;18.20;13.38;;;3.40;62.10;;;;;;4991688;28;20026;-59
2022/03/13 02:41:26;;;;;;;15.52;11.68;;;3.40;63.50;;;;;;4985427;28;20045;-58
2022/03/13 02:44:12;;;;;;;17.42;12.15;;;3.30;63.70;;;;;;4991721;28;20037;-58
2022/03/13 02:47:01;;;;;;;16.63;12.15;;;3.20;64.00;;;;;;4991874;28;20128;-58
2022/03/13 02:49:45;;;;;;;20.05;12.77;;;3.20;64.70;;;;;;4991351;28;20037;-57
2022/03/13 02:52:29;;;;;;;15.43;12.35;;;3.20;65.30;;;;;;4991370;28;20068;-55
2022/03/13 02:55:13;;;;;;;100.18;53.67;;;3.20;65.70;;;;;;4992038;28;20091;-58
2022/03/13 02:57:58;;;;;;;87.35;45.25;;;3.20;65.50;;;;;;5004387;28;20513;-57
2022/03/13 03:00:50;;;;;;;38.50;23.42;;;3.20;64.70;;;;;;4990312;28;20044;-55
2022/03/13 03:03:34;;;;;;;23.27;14.70;;;3.20;63.70;;;;;;4991877;28;20085;-54
2022/03/13 03:06:18;;;;;;;18.40;13.25;;;3.20;64.00;;;;;;5004664;28;20128;-57
2022/03/13 03:09:04;;;;;;;16.25;12.63;;;3.10;66.30;;;;;;4991412;28;20037;-58
2022/03/13 03:11:48;;;;;;;;;;;3.10;67.60;;;;;;4992581;28;20045;-58
2022/03/13 03:14:33;;;;;;;16.70;12.00;;;3.20;68.40;;;;;;4991768;28;19916;-59
2022/03/13 03:17:17;;;;;;;15.65;12.48;;;3.10;68.50;;;;;;4992078;28;20049;-57
2022/03/13 03:20:05;;;;;;;18.05;13.05;;;3.10;68.30;;;;;;4991767;28;20097;-58
2022/03/13 03:22:52;;;;;;;15.18;12.52;;;3.10;68.60;;;;;;4982404;28;20109;-58
2022/03/13 03:25:36;;;;;;;17.70;12.13;;;3.10;69.10;;;;;;4990760;28;20033;-55
2022/03/13 03:28:22;;;;;;;18.65;12.65;;;3.00;69.90;;;;;;4991997;28;20118;-59
2022/03/13 03:31:06;;;;;;;17.10;12.73;;;2.90;70.20;;;;;;4991919;28;20565;-58
2022/03/13 03:33:50;;;;;;;15.55;11.70;;;2.90;70.10;;;;;;4991276;28;20572;-58
2022/03/13 03:36:39;;;;;;;16.30;11.70;;;2.80;68.10;;;;;;4977706;28;20049;-59
2022/03/13 03:39:24;;;;;;;18.65;12.70;;;2.60;68.00;;;;;;4991978;28;20553;-57
2022/03/13 03:42:08;;;;;;;17.98;12.20;;;2.50;68.70;;;;;;4991504;28;20085;-56
2022/03/13 03:44:52;;;;;;;15.85;11.75;;;2.60;69.40;;;;;;4972507;28;20602;-58
2022/03/13 03:47:36;;;;;;;17.70;12.77;;;2.60;69.50;;;;;;4985117;28;20414;-57
2022/03/13 03:50:21;;;;;;;15.73;11.77;;;2.60;69.70;;;;;;4991848;28;20038;-58
2022/03/13 03:53:05;;;;;;;16.85;12.35;;;2.60;69.90;;;;;;4991901;28;20101;-57
2022/03/13 03:55:49;;;;;;;18.17;12.23;;;2.50;69.60;;;;;;4992114;28;20045;-58
2022/03/13 03:58:33;;;;;;;17.77;11.70;;;2.50;69.80;;;;;;4994901;28;20046;-58
2022/03/13 04:01:17;;;;;;;17.20;11.50;;;2.50;69.90;;;;;;4995088;28;20573;-57
2022/03/13 04:04:02;;;;;;;19.70;11.80;;;2.50;69.50;;;;;;4995446;28;20045;-59
2022/03/13 04:06:47;;;;;;;19.50;12.32;;;2.50;69.90;;;;;;4993763;28;20045;-58
2022/03/13 04:09:31;;;;;;;16.00;11.52;;;2.40;70.10;;;;;;4994842;28;20029;-56
2022/03/13 04:12:16;;;;;;;18.48;11.27;;;2.30;71.70;;;;;;5007913;28;20161;-58
2022/03/13 04:15:01;;;;;;;15.77;11.55;;;2.30;71.20;;;;;;4995370;28;20045;-58
2022/03/13 04:17:45;;;;;;;18.13;11.65;;;2.30;71.80;;;;;;4980583;28;20060;-57
2022/03/13 04:20:29;;;;;;;17.88;12.05;;;2.20;71.90;;;;;;4976305;28;20550;-56
2022/03/13 04:23:14;;;;;;;16.98;11.38;;;2.20;72.00;;;;;;4975548;28;20097;-53
2022/03/13 04:25:59;;;;;;;15.73;11.48;;;2.30;72.50;;;;;;4990165;28;20049;-57
2022/03/13 04:28:44;;;;;;;15.68;10.85;;;2.40;71.70;;;;;;4994728;28;20037;-52
2022/03/13 04:31:28;;;;;;;16.70;11.65;;;2.40;71.60;;;;;;4994173;28;20037;-58
2022/03/13 04:34:12;;;;;;;13.68;10.43;;;2.30;71.00;;;;;;4974956;28;20119;-56
2022/03/13 04:36:56;;;;;;;18.50;11.27;;;2.30;69.90;;;;;;4989141;28;20488;-54
2022/03/13 04:39:41;;;;;;;15.65;11.43;;;2.30;70.20;;;;;;4993065;28;20076;-54
2022/03/13 04:42:25;;;;;;;16.50;11.10;;;2.20;69.90;;;;;;4986684;28;20037;-57
2022/03/13 04:45:09;;;;;;;16.15;11.38;;;2.30;69.90;;;;;;4974705;28;20407;-59
2022/03/13 04:47:53;;;;;;;15.35;10.73;;;2.30;70.20;;;;;;4991156;28;20045;-59
2022/03/13 04:50:38;;;;;;;16.15;11.70;;;2.20;70.20;;;;;;4994036;28;20041;-57
2022/03/13 04:53:22;;;;;;;18.02;11.75;;;2.10;70.80;;;;;;4993197;28;20581;-55
2022/03/13 04:56:07;;;;;;;15.43;11.18;;;2.20;71.60;;;;;;4993534;28;20060;-57
2022/03/13 04:58:51;;;;;;;;;;;2.10;72.20;;;;;;4993817;28;20398;-56
2022/03/13 05:01:35;;;;;;;16.23;10.98;;;2.10;72.30;;;;;;4993545;28;19959;-55
2022/03/13 05:04:20;;;;;;;15.98;10.65;;;2.10;71.70;;;;;;5007189;28;20045;-57
2022/03/13 05:07:06;;;;;;;16.02;11.57;;;2.10;70.70;;;;;;4994151;28;20097;-56
2022/03/13 05:09:51;;;;;;;15.35;11.35;;;2.10;70.70;;;;;;4991042;28;20053;-55
2022/03/13 05:12:35;;;;;;;15.20;10.95;;;2.10;70.70;;;;;;4993376;28;20096;-54
2022/03/13 05:15:19;;;;;;;14.82;9.98;;;2.10;68.70;;;;;;4993340;28;20111;-56
2022/03/13 05:18:04;;;;;;;17.73;10.70;;;1.90;67.70;;;;;;5006121;28;20096;-58
2022/03/13 05:20:48;;;;;;;15.80;10.73;;;1.90;66.80;;;;;;5006090;28;20449;-53
2022/03/13 05:23:32;;;;;;;17.02;10.25;;;1.80;66.60;;;;;;4993107;28;20044;-56
2022/03/13 05:26:16;;;;;;;15.80;10.13;;;1.80;66.20;;;;;;5005762;28;20073;-56
2022/03/13 05:29:01;;;;;;;14.90;9.73;;;1.80;66.30;;;;;;5005655;28;20068;-54
2022/03/13 05:31:45;;;;;;;;;;;1.80;65.30;;;;;;4993097;28;20450;-55
2022/03/13 05:34:30;;;;;;;14.00;10.02;;;1.80;65.10;;;;;;4993270;28;19995;-54
2022/03/13 05:37:14;;;;;;;12.88;9.45;;;1.70;65.60;;;;;;4992674;28;20138;-53
2022/03/13 05:39:58;;;;;;;17.23;9.90;;;1.70;65.60;;;;;;4993702;28;20042;-56
2022/03/13 05:42:44;;;;;;;17.25;10.23;;;1.80;66.70;;;;;;4992487;28;20104;-51
2022/03/13 05:45:29;;;;;;;15.93;11.30;;;1.80;67.30;;;;;;4992730;28;20117;-57
2022/03/13 05:48:17;;;;;;;16.92;11.50;;;1.80;68.60;;;;;;4999908;28;20061;-55
2022/03/13 05:51:02;;;;;;;16.00;11.23;;;1.90;69.60;;;;;;4992536;28;20142;-52
2022/03/13 05:53:46;;;;;;;17.08;11.45;;;1.90;70.80;;;;;;5005636;28;20045;-57
2022/03/13 05:56:30;;;;;;;16.52;12.25;;;2.00;71.10;;;;;;4991586;28;20052;-56
2022/03/13 05:59:15;;;;;;;16.90;11.70;;;2.00;71.50;;;;;;5005367;28;20470;-54
2022/03/13 06:02:00;;;;;;;18.58;11.98;;;2.00;72.30;;;;;;4992245;28;20553;-57
2022/03/13 06:04:45;;;;;;;15.75;11.55;;;2.00;72.50;;;;;;4992626;28;20178;-56
2022/03/13 06:07:29;;;;;;;15.23;11.30;;;2.00;72.80;;;;;;4992347;28;20041;-57
2022/03/13 06:10:14;;;;;;;15.38;11.18;;;2.00;72.80;;;;;;4992332;28;20045;-59
2022/03/13 06:12:58;;;;;;;14.75;10.93;;;2.00;72.20;;;;;;4992067;28;20037;-59
2022/03/13 06:15:42;;;;;;;15.05;11.23;;;2.00;71.20;;;;;;4992370;28;20049;-58
2022/03/13 06:18:27;;;;;;;18.83;11.90;;;2.10;71.20;;;;;;4992240;28;20061;-58
2022/03/13 06:21:13;;;;;;;15.82;11.20;;;2.00;69.70;;;;;;4971979;28;20101;-57
2022/03/13 06:23:59;;;;;;;17.63;10.93;;;2.10;69.50;;;;;;4973594;28;20086;-58
2022/03/13 06:26:44;;;;;;;16.40;9.95;;;2.10;68.50;;;;;;4992642;28;20045;-57
2022/03/13 06:29:31;;;;;;;15.85;10.38;;;2.10;66.10;;;;;;4991299;28;20042;-58
2022/03/13 06:32:15;;;;;;;14.82;10.05;;;2.10;65.30;;;;;;4993807;28;20045;-55
2022/03/13 06:34:59;;;;;;;17.65;9.90;;;2.10;64.10;;;;;;5004876;28;20041;-59
2022/03/13 06:37:44;;;;;;;16.48;10.50;;;2.00;64.00;;;;;;5005120;28;20045;-59
2022/03/13 06:40:29;;;;;;;17.08;11.65;;;2.10;64.80;;;;;;5008338;28;20084;-58
2022/03/13 06:43:16;;;;;;;15.10;10.35;;;2.20;65.80;;;;;;4992650;28;20069;-57
2022/03/13 06:46:01;;;;;;;16.25;10.73;;;2.30;65.60;;;;;;4990722;28;20033;-59
2022/03/13 06:48:46;;;;;;;15.23;10.70;;;2.10;64.60;;;;;;4994487;28;20071;-57
2022/03/13 06:51:30;;;;;;;18.65;10.88;;;2.20;64.90;;;;;;4985037;28;20073;-58
2022/03/13 06:54:14;;;;;;;14.85;9.77;;;2.30;64.50;;;;;;4990380;28;20049;-58
2022/03/13 06:56:58;;;;;;;12.45;9.68;;;2.30;64.00;;;;;;4992122;28;20045;-57
2022/03/13 06:59:42;;;;;;;13.60;8.73;;;2.40;63.80;;;;;;4984110;28;20040;-61
2022/03/13 07:02:27;;;;;;;12.48;9.48;;;2.50;61.80;;;;;;4990094;28;20049;-57
2022/03/13 07:05:12;;;;;;;15.67;9.40;;;2.50;61.00;;;;;;5003878;28;20041;-56
2022/03/13 07:07:57;;;;;;;15.13;9.02;;;2.90;72.40;;;;;;4983470;28;20037;-58
2022/03/13 07:10:45;;;;;;;19.45;9.98;;;3.30;65.50;;;;;;4986301;28;20037;-60
2022/03/13 07:13:33;;;;;;;15.20;9.85;;;3.40;61.50;;;;;;4976423;28;20132;-57
2022/03/13 07:16:21;;;;;;;14.35;9.52;;;3.20;61.40;;;;;;4990749;28;20193;-55
2022/03/13 07:19:05;;;;;;;12.38;9.52;;;3.40;62.50;;;;;;4991539;28;20026;-58
2022/03/13 07:21:49;;;;;;;13.60;9.70;;;3.60;61.00;;;;;;5002851;28;20105;-59
2022/03/13 07:24:33;;;;;;;13.52;10.13;;;3.70;59.80;;;;;;4989994;28;20049;-56
2022/03/13 07:27:17;;;;;;;17.13;11.40;;;3.80;59.30;;;;;;4990563;28;20474;-56
2022/03/13 07:30:01;;;;;;;17.33;9.57;;;3.80;58.90;;;;;;4971373;28;20041;-56
2022/03/13 07:32:45;;;;;;;14.75;9.98;;;3.70;58.50;;;;;;4994139;28;20046;-58
2022/03/13 07:35:29;;;;;;;14.00;10.00;;;3.70;58.70;;;;;;4994551;28;20082;-56
2022/03/13 07:38:13;;;;;;;13.70;9.88;;;3.70;58.70;;;;;;4992762;28;20459;-58
2022/03/13 07:40:57;;;;;;;14.18;9.23;;;3.70;58.80;;;;;;4989231;28;20041;-55
2022/03/13 07:43:41;;;;;;;14.32;9.68;;;3.80;58.80;;;;;;4991464;28;20093;-61
2022/03/13 07:46:25;;;;;;;11.68;9.30;;;3.90;58.30;;;;;;4986212;28;20049;-60
2022/03/13 07:49:10;;;;;;;13.75;10.13;;;3.80;58.30;;;;;;5007657;28;20153;-56
2022/03/13 07:51:54;;;;;;;14.05;9.43;;;4.00;61.40;;;;;;4994065;28;20042;-58
2022/03/13 07:54:38;;;;;;;17.15;10.00;;;4.20;59.40;;;;;;4994414;28;20084;-58
2022/03/13 07:57:25;;;;;;;14.68;10.20;;;4.20;58.20;;;;;;4994762;28;20418;-58
2022/03/13 08:00:15;;;;;;;22.52;10.68;;;4.40;57.90;;;;;;4993814;28;20041;-59
2022/03/13 08:02:59;;;;;;;23.80;13.80;;;4.40;57.70;;;;;;4980643;28;20032;-58
2022/03/13 08:05:43;;;;;;;14.48;10.07;;;4.40;57.20;;;;;;4994624;28;20053;-57
2022/03/13 08:08:27;;;;;;;12.75;9.77;;;4.40;57.20;;;;;;4994767;28;20378;-60
2022/03/13 08:11:11;;;;;;;15.70;9.13;;;4.40;57.20;;;;;;4993448;28;20046;-59
2022/03/13 08:13:56;;;;;;;13.57;9.07;;;4.50;56.90;;;;;;4993315;28;20049;-58
2022/03/13 08:16:40;;;;;;;14.25;9.10;;;4.60;56.80;;;;;;5007117;28;20097;-57
2022/03/13 08:19:24;;;;;;;12.40;8.77;;;4.70;55.90;;;;;;4993924;28;20040;-56
2022/03/13 08:22:08;;;;;;;13.05;9.60;;;4.70;55.00;;;;;;4979792;28;20449;-58
2022/03/13 08:24:53;;;;;;;13.02;8.80;;;4.70;54.60;;;;;;5007249;28;20064;-59
2022/03/13 08:27:37;;;;;;;17.05;8.10;;;4.70;54.40;;;;;;4993762;28;20505;-57
2022/03/13 08:30:21;;;;;;;11.57;8.38;;;4.80;54.10;;;;;;4974211;28;20037;-60
2022/03/13 08:33:05;;;;;;;12.57;9.15;;;4.90;54.10;;;;;;5000166;28;20413;-57
2022/03/13 08:35:49;;;;;;;14.50;8.63;;;5.00;53.90;;;;;;4994227;28;20456;-56
2022/03/13 08:38:33;;;;;;;12.00;8.02;;;5.10;53.50;;;;;;4993158;28;20034;-58
2022/03/13 08:41:18;;;;;;;13.57;8.57;;;5.20;53.10;;;;;;4993240;28;20049;-58
2022/03/13 08:44:03;;;;;;;12.68;8.77;;;5.20;52.50;;;;;;4981383;28;20562;-57
2022/03/13 08:46:47;;;;;;;12.43;8.73;;;5.30;52.80;;;;;;4993895;28;20120;-57
2022/03/13 08:49:32;;;;;;;11.85;8.25;;;5.40;52.30;;;;;;4992955;28;20041;-60
2022/03/13 08:52:17;;;;;;;11.45;8.48;;;5.60;52.10;;;;;;4992892;28;20100;-57
2022/03/13 08:55:03;;;;;;;12.95;8.73;;;5.60;50.90;;;;;;4993975;28;20049;-57
2022/03/13 08:57:47;;;;;;;13.90;8.73;;;5.60;50.80;;;;;;4984869;28;20041;-57
2022/03/13 09:00:36;;;;;;;13.35;8.85;;;5.60;51.30;;;;;;4990282;28;20045;-56
2022/03/13 09:03:20;;;;;;;12.55;9.23;;;5.80;51.30;;;;;;4993037;28;20374;-56
2022/03/13 09:06:04;;;;;;;14.10;9.35;;;6.00;51.00;;;;;;4992757;28;20049;-60
2022/03/13 09:08:49;;;;;;;28.80;17.98;;;6.10;51.40;;;;;;4990656;28;20053;-57
2022/03/13 09:11:34;;;;;;;12.40;9.88;;;6.20;50.40;;;;;;4991054;28;20038;-54
2022/03/13 09:14:18;;;;;;;;;;;6.20;50.20;;;;;;4993474;28;20037;-56
2022/03/13 09:17:03;;;;;;;12.20;8.45;;;6.20;50.40;;;;;;5000117;28;19972;-54
2022/03/13 09:19:47;;;;;;;12.85;8.70;;;6.30;50.70;;;;;;5013037;28;20032;-57
2022/03/13 09:22:32;;;;;;;12.43;9.13;;;6.30;50.60;;;;;;4999584;28;20049;-58
2022/03/13 09:25:18;;;;;;;;;;;6.60;50.30;;;;;;5000380;28;20077;-61
2022/03/13 09:28:03;;;;;;;13.07;9.13;;;6.70;50.00;;;;;;4985621;28;20013;-57
2022/03/13 09:30:47;;;;;;;15.48;8.98;;;6.70;49.30;;;;;;4982538;28;20081;-59
2022/03/13 09:33:35;;;;;;;14.50;8.65;;;6.70;49.40;;;;;;4990697;28;20108;-58
2022/03/13 09:36:19;;;;;;;11.95;9.05;;;7.00;60.50;;;;;;4986234;28;20408;-54
2022/03/13 09:39:06;;;;;;;15.85;9.77;;;7.80;49.90;;;;;;5005230;28;20056;-57
2022/03/13 09:41:50;;;;;;;11.20;8.10;;;8.20;48.80;;;;;;5002915;28;20088;-57
2022/03/13 09:44:34;;;;;;;11.95;8.52;;;8.50;47.70;;;;;;5003327;28;20581;-61
2022/03/13 09:47:19;;;;;;;10.97;8.57;;;8.70;47.40;;;;;;4991904;28;20045;-57
2022/03/13 09:50:04;;;;;;;;;;;8.80;47.90;;;;;;4992308;28;20401;-55
2022/03/13 09:52:49;;;;;;;14.32;8.63;;;8.90;46.70;;;;;;4989504;28;19917;-58
2022/03/13 09:55:33;;;;;;;12.13;8.75;;;9.00;46.80;;;;;;5005353;28;20374;-57
2022/03/13 09:58:18;;;;;;;13.00;9.20;;;9.20;46.10;;;;;;5002038;28;20161;-57
2022/03/13 10:01:02;;;;;;;10.82;8.68;;;9.10;45.70;;;;;;4986403;28;20041;-55
2022/03/13 10:03:47;;;;;;;13.43;9.63;;;8.90;46.10;;;;;;4993536;28;20386;-60
2022/03/13 10:06:33;;;;;;;;;;;8.60;46.40;;;;;;4988906;28;20049;-54
2022/03/13 10:09:27;;;;;;;13.23;9.50;;;8.50;46.80;;;;;;4998226;28;19925;-58
2022/03/13 10:12:14;;;;;;;12.65;8.48;;;8.40;47.20;;;;;;4984225;28;20150;-55
2022/03/13 10:15:05;;;;;;;12.20;8.20;;;8.40;47.60;;;;;;4984008;28;20038;-55
2022/03/13 10:17:49;;;;;;;27.52;9.63;;;8.30;47.50;;;;;;4985829;28;20088;-55
2022/03/13 10:20:35;;;;;;;14.00;9.77;;;8.40;47.50;;;;;;4999099;28;20033;-55
2022/03/13 10:23:20;;;;;;;12.80;8.93;;;8.40;47.50;;;;;;4983174;28;20041;-54
2022/03/13 10:26:07;;;;;;;11.63;8.52;;;8.60;47.50;;;;;;4989844;28;20034;-54
2022/03/13 10:28:51;;;;;;;14.82;9.18;;;8.70;47.10;;;;;;4995575;28;20045;-57
2022/03/13 10:31:35;;;;;;;10.87;9.00;;;8.80;46.40;;;;;;4991458;28;20038;-55
2022/03/13 10:34:23;;;;;;;11.33;8.67;;;8.90;46.30;;;;;;4990646;28;20025;-53
2022/03/13 10:37:08;;;;;;;11.23;8.50;;;9.10;46.00;;;;;;4981453;28;20037;-54
2022/03/13 10:40:15;;;;;;;10.90;8.73;;;9.10;45.70;;;;;;4983116;28;20448;-58
2022/03/13 10:43:08;;;;;;;12.32;9.10;;;9.10;46.00;;;;;;4987819;28;20036;-53
2022/03/13 10:45:54;;;;;;;9.95;8.27;;;9.20;45.80;;;;;;4987522;28;20089;-53
2022/03/13 10:48:45;;;;;;;9.95;8.40;;;9.20;45.30;;;;;;4987445;28;20154;-59
2022/03/13 10:51:47;;;;;;;11.15;8.25;;;9.40;45.50;;;;;;4993946;28;20052;-59
2022/03/13 10:54:37;;;;;;;10.80;8.32;;;9.70;47.30;;;;;;4985024;28;20041;-56
2022/03/13 10:57:22;;;;;;;15.05;10.23;;;9.80;44.80;;;;;;4974996;28;20122;-57
2022/03/13 11:00:16;;;;;;;11.88;8.38;;;9.80;44.80;;;;;;4985030;28;20166;-59
2022/03/13 11:03:14;;;;;;;11.05;8.27;;;9.90;44.30;;;;;;4984136;28;20398;-60
2022/03/13 11:06:01;;;;;;;10.68;8.00;;;10.00;43.60;;;;;;4991890;28;20029;-56
2022/03/13 11:08:46;;;;;;;11.95;8.63;;;10.00;43.20;;;;;;4980738;28;20041;-55
2022/03/13 11:11:31;;;;;;;10.38;8.57;;;10.00;43.10;;;;;;4995916;28;20394;-59
2022/03/13 11:14:18;;;;;;;11.05;8.70;;;10.00;43.00;;;;;;4986311;28;20374;-56
2022/03/13 11:17:03;;;;;;;12.15;9.18;;;10.20;43.30;;;;;;4993635;28;20105;-59
2022/03/13 11:19:55;;;;;;;11.88;8.82;;;10.30;43.20;;;;;;4995055;28;20065;-60
2022/03/13 11:22:40;;;;;;;12.25;9.13;;;10.50;45.10;;;;;;4989135;28;20030;-58
2022/03/13 11:25:25;;;;;;;10.85;8.07;;;10.80;45.60;;;;;;4990274;28;20038;-56
2022/03/13 11:28:09;;;;;;;12.25;8.73;;;11.00;42.70;;;;;;4994531;28;20110;-59
2022/03/13 11:30:53;;;;;;;11.10;8.85;;;10.80;41.80;;;;;;4990894;28;20045;-56
2022/03/13 11:33:45;;;;;;;9.75;8.23;;;10.90;42.20;;;;;;4992821;28;20501;-56
2022/03/13 11:36:32;;;;;;;12.40;8.02;;;10.90;42.50;;;;;;4992655;28;20053;-59
2022/03/13 11:39:28;;;;;;;12.65;9.90;;;10.90;42.60;;;;;;4994996;28;20096;-58
2022/03/13 11:42:23;;;;;;;12.00;9.15;;;11.00;42.60;;;;;;4992485;28;20169;-64
2022/03/13 11:45:31;;;;;;;11.00;9.32;;;11.10;42.80;;;;;;5004740;28;20111;-58
2022/03/13 11:48:17;;;;;;;13.77;9.10;;;11.20;42.20;;;;;;4997341;28;20088;-59
2022/03/13 11:51:04;;;;;;;13.75;9.68;;;11.20;42.10;;;;;;4993590;28;20101;-57
2022/03/13 11:53:49;;;;;;;11.75;9.82;;;11.20;42.30;;;;;;4992548;28;20084;-60
2022/03/13 11:56:46;;;;;;;11.80;9.15;;;11.10;42.20;;;;;;4991216;28;20041;-62
2022/03/13 11:59:30;;;;;;;14.55;10.05;;;11.20;42.20;;;;;;4990985;28;20030;-54
2022/03/13 12:02:42;;;;;;;11.77;9.67;;;11.30;42.40;;;;;;4987934;28;20085;-57
2022/03/13 12:05:31;;;;;;;12.52;10.07;;;11.40;41.90;;;;;;4991952;28;20045;-55
2022/03/13 12:08:21;;;;;;;12.23;9.35;;;11.50;41.40;;;;;;4993881;28;20042;-55
2022/03/13 12:11:38;;;;;;;13.63;9.70;;;11.50;41.50;;;;;;5006033;28;20040;-59
2022/03/13 12:14:56;;;;;;;12.10;9.20;;;11.60;41.70;;;;;;4991719;28;20637;-62
2022/03/13 12:17:46;;;;;;;13.02;8.85;;;11.80;41.70;;;;;;4991280;28;20042;-56
2022/03/13 12:20:31;;;;;;;10.80;9.57;;;11.90;41.90;;;;;;4992149;28;20630;-54
2022/03/13 12:23:27;;;;;;;10.23;8.90;;;11.80;41.90;;;;;;4986489;28;20125;-58
2022/03/13 12:26:13;;;;;;;14.55;9.77;;;11.70;42.10;;;;;;4987989;28;20037;-56
2022/03/13 12:28:58;;;;;;;11.45;9.55;;;11.80;42.10;;;;;;4990404;28;20037;-58
2022/03/13 12:31:48;;;;;;;13.02;9.05;;;11.80;42.00;;;;;;4989342;28;20181;-56
2022/03/13 12:34:33;;;;;;;15.15;10.55;;;12.00;41.80;;;;;;4990132;28;20398;-55
2022/03/13 12:37:17;;;;;;;19.23;12.95;;;12.10;41.40;;;;;;4984343;28;20450;-55
2022/03/13 12:40:03;;;;;;;12.77;9.53;;;12.10;42.20;;;;;;4982278;28;20093;-58
2022/03/13 12:42:53;;;;;;;11.32;10.13;;;12.30;42.40;;;;;;4992239;28;20101;-57
2022/03/13 12:45:51;;;;;;;21.77;10.70;;;12.30;42.20;;;;;;4983218;28;20149;-59
2022/03/13 12:48:37;;;;;;;11.88;10.68;;;12.50;42.00;;;;;;4991821;28;20038;-55
2022/03/13 12:51:44;;;;;;;13.63;9.88;;;12.50;41.90;;;;;;4991268;28;20069;-51
2022/03/13 12:54:30;;;;;;;13.68;9.73;;;12.60;41.50;;;;;;4984470;28;20524;-55
2022/03/13 12:57:19;;;;;;;13.45;10.30;;;12.70;41.50;;;;;;4986455;28;20042;-53
2022/03/13 13:00:06;;;;;;;16.10;9.35;;;12.80;41.00;;;;;;4991835;28;20595;-57
2022/03/13 13:02:58;;;;;;;11.23;9.00;;;12.90;40.30;;;;;;4976861;28;20041;-51
2022/03/13 13:05:53;;;;;;;11.63;8.90;;;12.90;39.90;;;;;;4990809;28;20524;-56
2022/03/13 13:08:37;;;;;;;13.18;11.13;;;12.90;39.90;;;;;;4985234;28;20045;-55
2022/03/13 13:11:29;;;;;;;11.87;9.90;;;13.00;40.30;;;;;;4984081;28;20442;-54
2022/03/13 13:14:13;;;;;;;9.43;8.43;;;13.10;41.60;;;;;;4981738;28;20173;-56
2022/03/13 13:16:59;;;;;;;12.47;9.77;;;13.30;42.00;;;;;;4992903;28;20037;-57
2022/03/13 13:19:51;;;;;;;13.10;10.77;;;13.40;42.10;;;;;;4993149;28;20053;-53
2022/03/13 13:22:40;;;;;;;12.88;10.20;;;13.50;42.10;;;;;;4992296;28;20042;-54
2022/03/13 13:25:27;;;;;;;15.10;10.55;;;13.60;42.30;;;;;;4993438;28;20045;-55
2022/03/13 13:28:12;;;;;;;13.63;9.75;;;13.80;42.10;;;;;;4978026;28;20046;-55
2022/03/13 13:30:56;;;;;;;14.02;10.35;;;13.90;41.70;;;;;;4975995;28;20093;-56
2022/03/13 13:33:40;;;;;;;16.33;10.25;;;14.00;41.30;;;;;;4992846;28;20552;-58
2022/03/13 13:36:24;;;;;;;13.50;9.15;;;14.10;41.30;;;;;;4993028;28;20049;-54
2022/03/13 13:39:09;;;;;;;11.65;9.73;;;14.00;40.80;;;;;;4992568;28;20061;-53
2022/03/13 13:41:57;;;;;;;12.48;9.55;;;14.10;40.90;;;;;;4993138;28;20065;-58
2022/03/13 13:44:41;;;;;;;17.77;8.95;;;14.20;40.70;;;;;;4992249;28;20040;-57
2022/03/13 13:47:26;;;;;;;10.88;8.77;;;14.30;40.60;;;;;;4989075;28;20120;-57
2022/03/13 13:50:15;;;;;;;12.50;9.15;;;14.30;40.60;;;;;;4980143;28;20099;-55
2022/03/13 13:53:01;;;;;;;15.45;9.38;;;14.40;40.50;;;;;;5004026;28;20096;-58
2022/03/13 13:55:46;;;;;;;11.93;8.88;;;14.40;40.70;;;;;;4990640;28;20584;-53
2022/03/13 13:58:31;;;;;;;12.55;9.27;;;14.30;39.90;;;;;;4991168;28;20093;-53
2022/03/13 14:01:26;;;;;;;11.60;8.25;;;14.50;39.90;;;;;;4992386;28;20096;-51
2022/03/13 14:04:11;;;;;;;;;;;14.60;39.80;;;;;;4993420;28;20505;-57
2022/03/13 14:06:56;;;;;;;11.48;8.52;;;14.70;39.30;;;;;;4992077;28;19925;-56
2022/03/13 14:09:41;;;;;;;16.52;8.98;;;14.80;39.20;;;;;;4991925;28;20411;-55
2022/03/13 14:12:26;;;;;;;11.43;8.60;;;14.60;38.70;;;;;;4990759;28;20029;-57
2022/03/13 14:15:09;;;;;;;17.73;9.05;;;14.70;39.10;;;;;;4992495;28;20477;-54
2022/03/13 14:17:55;;;;;;;12.25;8.35;;;14.60;38.80;;;;;;4991229;28;20104;-56
2022/03/13 14:20:39;;;;;;;;;;;14.60;39.10;;;;;;4992105;28;20037;-52